Portada
METAR-TAF:

METAR-TAF

Aeropuertos :

Panamá Pacífico

Panama Pacifico, Panamá

latitud: 08-55N, longitud: 079-36W, altitud: 16 m

Observación

El informe se hizo hace 39 minutos, a las 15:00 UTC
Viento 4 kt del noreste
Temperatura 29°C
Humedad 66%
Presión 1011 hPa
Visibilidad 10 km o más
Escasas nubes a una altura de 1800 ft

METAR: MPPA 011500Z 04004KT 9999 FEW018 29/22 Q1011

Hora: 10:39 (15:39 UTC)

Pronóstico

El informe se hizo hace 4 horas y 39 minutos, a las 11:00 UTC
Pronóstico válido del 01 a las 12 UTC al 02 a las 18 UTC
Viento 8 kt del norte
Visibilidad 10 km o más
Nubes dispersas a una altura de 1800 ft
Probabilidad 30% :
Temporalmente
del 01 a las 19 UTC al 01 a las 21 UTC
Viento 5 kt del sur
Temporalmente
del 02 a las 06 UTC al 02 a las 08 UTC
Viento kt del norte

TAF: MPPA 011100Z 0112/0218 36008KT 9999 SCT018 PROB30 TEMPO 0119/0121 18005KT TEMPO 0206/0208 00000KT

Observaciones y pronósticos meteorológicos de más de 4000 aeropuertos (mensajes METAR y TAF).

Los puntos amarillos y rojos representan las estaciones disponibles.

Ponga el ratón en el punto deseado para ver el nombre de la estación.

Haga clic para ver las observaciones y los pronósticos meteorológicos.

Para cambiar el mapa : haga clic en los botones verdes con una cruz de color negro para hacer un zoom, en el botón verde con un guión para alejar o en las flechas verdes para mapas adyacentes.


METAR-TAF: